createdAt,value
2018-02-27T00:01:47.723Z,-6.80
2018-02-27T00:04:15.243Z,-6.88
2018-02-27T00:06:42.763Z,-6.87
2018-02-27T00:09:10.278Z,-6.92
2018-02-27T00:11:37.802Z,-7.00
2018-02-27T00:14:05.323Z,-6.98
2018-02-27T00:16:32.845Z,-6.96
2018-02-27T00:19:00.378Z,-6.92
2018-02-27T00:21:27.925Z,-6.82
2018-02-27T00:23:55.453Z,-6.89
2018-02-27T00:26:23.774Z,-6.72
2018-02-27T00:28:51.288Z,-6.57
2018-02-27T00:31:18.821Z,-6.60
2018-02-27T00:33:46.343Z,-6.81
2018-02-27T00:36:13.864Z,-6.84
2018-02-27T00:38:41.386Z,-6.79
2018-02-27T00:41:08.908Z,-6.86
2018-02-27T00:43:36.428Z,-6.76
2018-02-27T00:46:03.946Z,-6.69
2018-02-27T00:48:31.477Z,-6.73
2018-02-27T00:50:58.992Z,-6.75
2018-02-27T00:53:26.503Z,-6.98
2018-02-27T00:55:54.031Z,-7.04
2018-02-27T00:58:21.572Z,-7.03
2018-02-27T01:00:49.106Z,-7.13
2018-02-27T01:03:16.624Z,-7.19
2018-02-27T01:05:44.132Z,-7.19
2018-02-27T01:08:11.648Z,-7.12
2018-02-27T01:10:39.161Z,-7.06
2018-02-27T01:13:06.681Z,-7.06
2018-02-27T01:15:34.215Z,-7.06
2018-02-27T01:18:01.741Z,-7.21
2018-02-27T01:20:29.271Z,-7.28
2018-02-27T01:22:56.801Z,-7.22
2018-02-27T01:25:24.323Z,-7.00
2018-02-27T01:27:51.850Z,-7.02
2018-02-27T01:30:19.378Z,-7.01
2018-02-27T01:32:46.908Z,-7.06
2018-02-27T01:35:14.435Z,-7.01
2018-02-27T01:37:41.950Z,-7.02
2018-02-27T01:40:09.474Z,-6.85
2018-02-27T01:42:37.002Z,-6.95
2018-02-27T01:45:04.527Z,-6.83
2018-02-27T01:47:32.054Z,-6.91
2018-02-27T01:49:59.569Z,-6.79
2018-02-27T01:52:27.101Z,-6.88
2018-02-27T01:54:54.628Z,-7.03
2018-02-27T01:57:22.173Z,-7.12
2018-02-27T01:59:49.704Z,-6.99
2018-02-27T02:02:17.217Z,-7.20
2018-02-27T02:04:44.736Z,-7.04
2018-02-27T02:07:12.256Z,-7.14
2018-02-27T02:09:39.780Z,-7.26
2018-02-27T02:12:07.331Z,-7.07
2018-02-27T02:14:34.873Z,-7.26
2018-02-27T02:17:02.393Z,-7.13
2018-02-27T02:19:29.924Z,-7.19
2018-02-27T02:21:57.449Z,-7.22
2018-02-27T02:24:24.988Z,-7.15
2018-02-27T02:26:52.502Z,-7.29
2018-02-27T02:29:20.019Z,-7.19
2018-02-27T02:31:47.540Z,-7.26
2018-02-27T02:34:15.066Z,-7.05
2018-02-27T02:36:42.626Z,-7.21
2018-02-27T02:39:10.150Z,-7.06
2018-02-27T02:41:37.675Z,-7.17
2018-02-27T02:44:05.206Z,-7.07
2018-02-27T02:46:32.738Z,-7.44
2018-02-27T02:49:00.256Z,-7.23
2018-02-27T02:51:27.774Z,-7.40
2018-02-27T02:53:55.289Z,-7.41
2018-02-27T02:56:22.800Z,-7.53
2018-02-27T02:58:50.339Z,-7.52
2018-02-27T03:01:17.867Z,-7.48
2018-02-27T03:03:45.389Z,-7.53
2018-02-27T03:06:12.913Z,-7.37
2018-02-27T03:08:40.445Z,-7.54
2018-02-27T03:11:07.970Z,-7.43
2018-02-27T03:13:35.503Z,-7.54
2018-02-27T03:16:03.025Z,-7.74
2018-02-27T03:18:30.540Z,-7.43
2018-02-27T03:20:58.070Z,-7.40
2018-02-27T03:23:25.599Z,-7.45
2018-02-27T03:25:53.126Z,-7.63
2018-02-27T03:28:20.643Z,-7.71
2018-02-27T03:30:48.179Z,-7.50
2018-02-27T03:33:15.684Z,-7.77
2018-02-27T03:35:43.218Z,-7.84
2018-02-27T03:38:10.730Z,-7.74
2018-02-27T03:40:38.253Z,-7.55
2018-02-27T03:43:05.771Z,-7.45
2018-02-27T03:45:33.285Z,-7.81
2018-02-27T03:48:00.802Z,-7.68
2018-02-27T03:50:28.313Z,-7.76
2018-02-27T03:52:55.841Z,-7.74
2018-02-27T03:55:23.374Z,-7.84
2018-02-27T03:57:50.923Z,-7.78
2018-02-27T04:00:18.444Z,-7.90
2018-02-27T04:02:45.976Z,-7.76
2018-02-27T04:05:13.491Z,-7.82
2018-02-27T04:07:41.024Z,-7.66
2018-02-27T04:10:08.551Z,-7.67
2018-02-27T04:12:36.082Z,-7.82
2018-02-27T04:15:03.637Z,-7.67
2018-02-27T04:17:31.161Z,-7.55
2018-02-27T04:19:58.676Z,-7.77
2018-02-27T04:22:26.192Z,-7.69
2018-02-27T04:24:53.705Z,-7.54
2018-02-27T04:27:21.224Z,-7.74
2018-02-27T04:29:48.754Z,-7.74
2018-02-27T04:32:16.285Z,-7.89
2018-02-27T04:34:43.805Z,-7.63
2018-02-27T04:37:11.378Z,-7.49
2018-02-27T04:39:38.907Z,-7.44
2018-02-27T04:42:06.429Z,-7.76
2018-02-27T04:44:33.943Z,-7.53
2018-02-27T04:47:02.374Z,-7.67
2018-02-27T04:49:29.897Z,-7.68
2018-02-27T04:51:57.425Z,-7.86
2018-02-27T04:54:24.954Z,-7.83
2018-02-27T04:56:52.466Z,-7.82
2018-02-27T04:59:19.987Z,-7.75
2018-02-27T05:01:47.511Z,-7.83
2018-02-27T05:04:15.017Z,-7.82
2018-02-27T05:06:42.556Z,-7.67
2018-02-27T05:09:10.090Z,-7.58
2018-02-27T05:11:37.628Z,-7.56
2018-02-27T05:14:05.141Z,-7.56
2018-02-27T05:16:32.659Z,-7.66
2018-02-27T05:19:00.186Z,-7.57
2018-02-27T05:21:27.700Z,-7.48
2018-02-27T05:23:55.211Z,-7.60
2018-02-27T05:26:22.732Z,-7.73
2018-02-27T05:28:50.257Z,-7.67
2018-02-27T05:31:17.833Z,-7.55
2018-02-27T05:33:45.347Z,-7.55
2018-02-27T05:36:12.862Z,-7.50
2018-02-27T05:38:40.390Z,-7.49
2018-02-27T05:41:07.905Z,-7.60
2018-02-27T05:43:35.437Z,-7.55
2018-02-27T05:46:02.961Z,-7.57
2018-02-27T05:48:30.480Z,-7.51
2018-02-27T05:50:58.005Z,-7.72
2018-02-27T05:53:25.520Z,-7.48
2018-02-27T05:55:53.050Z,-7.51
2018-02-27T05:58:20.584Z,-7.42
2018-02-27T06:00:48.111Z,-7.48
2018-02-27T06:03:15.629Z,-7.49
2018-02-27T06:05:43.151Z,-7.47
2018-02-27T06:08:10.673Z,-7.47
2018-02-27T06:10:38.201Z,-7.42
2018-02-27T06:13:05.790Z,-7.45
2018-02-27T06:15:33.269Z,-7.44
2018-02-27T06:18:00.781Z,-7.20
2018-02-27T06:20:28.309Z,-7.11
2018-02-27T06:22:55.829Z,-6.99
2018-02-27T06:25:23.344Z,-7.06
2018-02-27T06:27:50.866Z,-7.14
2018-02-27T06:30:18.397Z,-7.10
2018-02-27T06:32:45.918Z,-7.06
2018-02-27T06:35:13.449Z,-7.05
2018-02-27T06:37:40.973Z,-7.09
2018-02-27T06:40:08.489Z,-7.30
2018-02-27T06:42:36.032Z,-7.01
2018-02-27T06:45:03.552Z,-6.94
2018-02-27T06:47:31.080Z,-6.89
2018-02-27T06:49:58.635Z,-6.76
2018-02-27T06:52:26.160Z,-6.90
2018-02-27T06:54:53.706Z,-6.73
2018-02-27T06:57:21.241Z,-6.61
2018-02-27T06:59:48.769Z,-6.60
2018-02-27T07:02:16.335Z,-6.25
2018-02-27T07:04:43.824Z,-6.24
2018-02-27T07:07:11.341Z,-6.08
2018-02-27T07:09:38.870Z,-6.13
2018-02-27T07:12:06.403Z,-6.13
2018-02-27T07:14:33.925Z,-6.26
2018-02-27T07:17:01.448Z,-6.10
2018-02-27T07:19:28.977Z,-6.17
2018-02-27T07:21:56.501Z,-6.37
2018-02-27T07:24:24.035Z,-6.01
2018-02-27T07:26:51.554Z,-5.50
2018-02-27T07:29:19.075Z,-5.24
2018-02-27T07:31:46.602Z,-5.09
2018-02-27T07:34:14.138Z,-4.78
2018-02-27T07:36:41.656Z,-4.61
2018-02-27T07:39:09.170Z,-4.40
2018-02-27T07:41:36.722Z,-4.12
2018-02-27T07:44:04.246Z,-3.76
2018-02-27T07:46:31.798Z,-2.87
2018-02-27T07:48:59.325Z,-2.64
2018-02-27T07:51:26.849Z,-1.87
2018-02-27T07:53:54.373Z,-2.21
2018-02-27T07:56:21.930Z,-1.86
2018-02-27T07:58:49.462Z,-2.32
2018-02-27T08:01:17.002Z,-1.13
2018-02-27T08:03:44.520Z,-1.15
2018-02-27T08:06:12.067Z,0.07
2018-02-27T08:08:39.600Z,0.52
2018-02-27T08:11:07.127Z,0.40
2018-02-27T08:13:34.641Z,1.19
2018-02-27T08:16:02.175Z,1.27
2018-02-27T08:18:29.705Z,1.56
2018-02-27T08:20:57.221Z,0.84
2018-02-27T08:23:24.752Z,1.19
2018-02-27T08:25:52.269Z,2.19
2018-02-27T08:28:19.807Z,2.81
2018-02-27T08:30:47.325Z,3.05
2018-02-27T08:33:14.843Z,3.37
2018-02-27T08:35:42.361Z,2.16
2018-02-27T08:38:09.887Z,1.01
2018-02-27T08:40:37.398Z,0.84
2018-02-27T08:43:04.926Z,0.07
2018-02-27T08:45:32.448Z,1.15
2018-02-27T08:47:59.973Z,1.23
2018-02-27T08:50:27.544Z,1.78
2018-02-27T08:52:55.037Z,1.78
2018-02-27T08:55:22.564Z,2.10
2018-02-27T08:57:50.084Z,1.52
2018-02-27T09:00:17.611Z,0.80
2018-02-27T09:02:45.130Z,0.64
2018-02-27T09:05:12.652Z,0.96
2018-02-27T09:07:40.170Z,0.42
2018-02-27T09:10:07.699Z,2.09
2018-02-27T09:12:35.230Z,1.20
2018-02-27T09:15:02.771Z,2.66
2018-02-27T09:17:30.276Z,2.06
2018-02-27T09:19:57.807Z,1.37
2018-02-27T09:22:25.329Z,2.70
2018-02-27T09:24:52.849Z,3.88
2018-02-27T09:27:20.394Z,3.94
2018-02-27T09:29:47.908Z,4.90
2018-02-27T09:32:15.496Z,3.48
2018-02-27T09:34:43.015Z,7.18
2018-02-27T09:37:10.529Z,6.77
2018-02-27T09:39:38.045Z,4.25
2018-02-27T09:42:05.599Z,3.96
2018-02-27T09:44:33.121Z,5.19
2018-02-27T09:47:00.634Z,5.69
2018-02-27T09:49:28.162Z,6.68
2018-02-27T09:51:55.672Z,6.73
2018-02-27T09:54:23.182Z,8.77
2018-02-27T09:56:50.694Z,9.54
2018-02-27T09:59:18.212Z,12.43
2018-02-27T10:01:45.745Z,10.51
2018-02-27T10:04:13.265Z,11.40
2018-02-27T10:06:40.791Z,11.67
2018-02-27T10:09:08.309Z,10.83
2018-02-27T10:11:35.829Z,10.21
2018-02-27T10:14:03.355Z,11.19
2018-02-27T10:16:30.862Z,8.43
2018-02-27T10:18:58.379Z,6.32
2018-02-27T10:21:25.891Z,5.61
2018-02-27T10:23:53.421Z,3.89
2018-02-27T10:26:20.937Z,3.78
2018-02-27T10:28:48.470Z,3.36
2018-02-27T10:31:15.996Z,3.56
2018-02-27T10:33:43.526Z,2.71
2018-02-27T10:36:11.041Z,2.05
2018-02-27T10:38:38.570Z,1.78
2018-02-27T10:41:06.109Z,2.18
2018-02-27T10:43:33.628Z,1.26
2018-02-27T10:46:01.137Z,2.08
2018-02-27T10:48:28.652Z,1.51
2018-02-27T10:50:56.202Z,1.44
2018-02-27T10:53:23.736Z,1.01
2018-02-27T10:55:51.266Z,0.30
2018-02-27T10:58:18.806Z,0.43
2018-02-27T11:00:51.357Z,0.19
2018-02-27T11:03:18.891Z,-0.82
2018-02-27T11:05:46.442Z,-0.41
2018-02-27T11:08:14.042Z,-0.50
2018-02-27T11:10:41.630Z,-0.58
2018-02-27T11:13:09.154Z,-0.96
2018-02-27T11:15:36.677Z,-0.28
2018-02-27T11:18:04.205Z,-0.03
2018-02-27T11:20:31.735Z,-0.75
2018-02-27T11:22:59.263Z,-0.17
2018-02-27T11:25:26.787Z,0.09
2018-02-27T11:27:54.308Z,0.22
2018-02-27T11:30:21.839Z,0.09
2018-02-27T11:32:49.367Z,0.05
2018-02-27T11:35:16.907Z,-0.54
2018-02-27T11:37:44.416Z,-0.85
2018-02-27T11:40:12.008Z,-0.85
2018-02-27T11:42:39.549Z,-1.57
2018-02-27T11:45:07.077Z,-0.92
2018-02-27T11:47:34.618Z,-1.11
2018-02-27T11:50:02.148Z,-1.20
2018-02-27T11:52:29.704Z,-1.26
2018-02-27T11:54:57.271Z,-1.08
2018-02-27T11:57:24.808Z,-1.47
2018-02-27T11:59:52.320Z,-1.52
2018-02-27T12:02:19.879Z,-1.19
2018-02-27T12:04:47.370Z,-0.46
2018-02-27T12:07:14.921Z,-0.82
2018-02-27T12:09:42.451Z,-1.63
2018-02-27T12:12:09.980Z,-1.12
2018-02-27T12:14:37.525Z,-0.63
2018-02-27T12:17:05.049Z,-0.63
2018-02-27T12:19:32.576Z,-0.44
2018-02-27T12:22:00.116Z,-0.70
2018-02-27T12:24:28.256Z,-0.78
2018-02-27T12:26:55.785Z,-0.94
2018-02-27T12:29:23.292Z,-0.29
2018-02-27T12:31:50.830Z,-0.39
2018-02-27T12:34:18.373Z,-0.32
2018-02-27T12:36:45.901Z,-0.27
2018-02-27T12:39:13.415Z,-1.27
2018-02-27T12:41:40.941Z,-1.48
2018-02-27T12:44:08.448Z,-1.44
2018-02-27T12:46:35.973Z,-1.98
2018-02-27T12:49:03.510Z,-1.22
2018-02-27T12:51:31.101Z,-1.20
2018-02-27T12:53:58.639Z,-1.38
2018-02-27T12:56:26.160Z,-2.02
2018-02-27T12:58:53.683Z,-1.19
2018-02-27T13:01:21.203Z,-2.11
2018-02-27T13:03:48.730Z,-1.67
2018-02-27T13:06:16.286Z,-1.77
2018-02-27T13:08:43.867Z,-1.62
2018-02-27T13:11:11.403Z,-1.22
2018-02-27T13:13:38.938Z,-2.43
2018-02-27T13:16:06.461Z,-2.17
2018-02-27T13:18:33.981Z,-2.09
2018-02-27T13:21:01.506Z,-1.55
2018-02-27T13:23:29.042Z,-1.60
2018-02-27T13:25:56.631Z,-1.96
2018-02-27T13:28:24.165Z,-1.53
2018-02-27T13:30:51.716Z,-1.38
2018-02-27T13:33:19.245Z,-1.52
2018-02-27T13:35:46.768Z,-1.45
2018-02-27T13:38:14.301Z,-2.00
2018-02-27T13:40:41.820Z,-1.79
2018-02-27T13:43:09.382Z,-1.78
2018-02-27T13:45:36.967Z,-1.22
2018-02-27T13:48:04.491Z,-1.28
2018-02-27T13:50:32.025Z,-1.75
2018-02-27T13:52:59.561Z,-2.29
2018-02-27T13:55:27.117Z,-0.90
2018-02-27T13:57:54.758Z,-1.45
2018-02-27T14:00:22.286Z,-1.15
2018-02-27T14:02:49.868Z,-1.08
2018-02-27T14:05:17.387Z,-1.87
2018-02-27T14:07:44.954Z,-2.38
2018-02-27T14:10:12.472Z,-1.75
2018-02-27T14:12:40.019Z,-2.26
2018-02-27T14:15:07.539Z,-1.68
2018-02-27T14:17:35.052Z,-1.32
2018-02-27T14:20:02.573Z,-1.51
2018-02-27T14:22:30.090Z,-1.53
2018-02-27T14:24:57.614Z,-1.97
2018-02-27T14:27:25.135Z,-2.16
2018-02-27T14:29:52.650Z,-1.99
2018-02-27T14:32:20.166Z,-2.09
2018-02-27T14:34:47.680Z,-2.31
2018-02-27T14:37:15.205Z,-2.13
2018-02-27T14:39:42.745Z,-2.19
2018-02-27T14:42:10.277Z,-1.56
2018-02-27T14:44:37.798Z,-2.20
2018-02-27T14:47:05.313Z,-2.51
2018-02-27T14:49:32.831Z,-2.47
2018-02-27T14:52:00.359Z,-2.71
2018-02-27T14:54:27.885Z,-2.27
2018-02-27T14:56:55.408Z,-2.54
2018-02-27T14:59:22.932Z,-2.77
2018-02-27T15:01:50.476Z,-2.55
2018-02-27T15:04:18.002Z,-2.86
2018-02-27T15:06:45.529Z,-2.38
2018-02-27T15:09:13.071Z,-2.69
2018-02-27T15:11:40.604Z,-2.27
2018-02-27T15:14:08.125Z,-2.56
2018-02-27T15:16:35.681Z,-2.55
2018-02-27T15:19:03.211Z,-2.78
2018-02-27T15:21:30.728Z,-2.69
2018-02-27T15:23:58.270Z,-2.76
2018-02-27T15:26:25.803Z,-2.55
2018-02-27T15:28:53.325Z,-2.71
2018-02-27T15:31:20.853Z,-3.00
2018-02-27T15:33:48.407Z,-3.20
2018-02-27T15:36:15.926Z,-2.68
2018-02-27T15:38:43.464Z,-2.89
2018-02-27T15:41:10.992Z,-3.23
2018-02-27T15:43:38.517Z,-3.12
2018-02-27T15:46:06.034Z,-3.36
2018-02-27T15:48:33.562Z,-3.21
2018-02-27T15:51:01.096Z,-3.34
2018-02-27T15:53:28.639Z,-3.05
2018-02-27T15:55:56.167Z,-3.21
2018-02-27T15:58:23.699Z,-3.11
2018-02-27T16:00:51.348Z,-3.20
2018-02-27T16:03:18.871Z,-3.30
2018-02-27T16:05:46.408Z,-3.90
2018-02-27T16:08:13.931Z,-3.77
2018-02-27T16:10:41.462Z,-3.41
2018-02-27T16:13:08.984Z,-3.82
2018-02-27T16:15:36.505Z,-3.61
2018-02-27T16:18:04.012Z,-3.96
2018-02-27T16:20:31.531Z,-3.86
2018-02-27T16:22:59.055Z,-3.84
2018-02-27T16:25:26.584Z,-3.70
2018-02-27T16:27:54.110Z,-4.09
2018-02-27T16:30:21.675Z,-3.95
2018-02-27T16:32:49.204Z,-4.10
2018-02-27T16:35:16.755Z,-3.91
2018-02-27T16:37:44.269Z,-3.85
2018-02-27T16:40:11.808Z,-3.99
2018-02-27T16:42:39.348Z,-4.07
2018-02-27T16:45:06.886Z,-4.03
2018-02-27T16:47:34.413Z,-4.11
2018-02-27T16:50:01.950Z,-4.22
2018-02-27T16:52:29.484Z,-4.05
2018-02-27T16:54:57.001Z,-3.83
2018-02-27T16:57:24.525Z,-4.32
2018-02-27T16:59:52.051Z,-4.16
2018-02-27T17:02:19.577Z,-4.32
2018-02-27T17:04:47.096Z,-4.51
2018-02-27T17:07:14.629Z,-4.42
2018-02-27T17:09:42.147Z,-4.15
2018-02-27T17:12:09.680Z,-4.46
2018-02-27T17:14:37.202Z,-4.26
2018-02-27T17:17:04.733Z,-4.36
2018-02-27T17:19:32.277Z,-4.39
2018-02-27T17:21:59.801Z,-4.30
2018-02-27T17:24:27.325Z,-4.69
2018-02-27T17:26:54.874Z,-4.82
2018-02-27T17:29:22.409Z,-4.64
2018-02-27T17:31:49.969Z,-4.72
2018-02-27T17:34:17.511Z,-4.89
2018-02-27T17:36:45.036Z,-4.94
2018-02-27T17:39:12.561Z,-4.91
2018-02-27T17:41:40.091Z,-4.87
2018-02-27T17:44:07.618Z,-5.03
2018-02-27T17:46:35.144Z,-4.94
2018-02-27T17:49:02.668Z,-5.19
2018-02-27T17:51:30.210Z,-5.14
2018-02-27T17:53:57.742Z,-5.26
2018-02-27T17:56:25.270Z,-5.19
2018-02-27T17:58:52.802Z,-5.36
2018-02-27T18:01:20.330Z,-5.28
2018-02-27T18:03:47.845Z,-5.22
2018-02-27T18:06:15.384Z,-5.39
2018-02-27T18:08:42.911Z,-5.17
2018-02-27T18:11:10.438Z,-5.23
2018-02-27T18:13:37.969Z,-5.29
2018-02-27T18:16:05.512Z,-5.35
2018-02-27T18:18:33.050Z,-5.22
2018-02-27T18:21:00.579Z,-5.23
2018-02-27T18:23:28.125Z,-5.35
2018-02-27T18:25:55.648Z,-5.39
2018-02-27T18:28:23.199Z,-5.49
2018-02-27T18:30:51.284Z,-5.53
2018-02-27T18:33:18.814Z,-5.50
2018-02-27T18:35:46.329Z,-5.52
2018-02-27T18:38:13.882Z,-5.62
2018-02-27T18:40:41.415Z,-5.52
2018-02-27T18:43:08.951Z,-5.58
2018-02-27T18:45:36.470Z,-5.50
2018-02-27T18:48:03.998Z,-5.38
2018-02-27T18:50:31.528Z,-5.43
2018-02-27T18:52:59.059Z,-5.63
2018-02-27T18:55:26.589Z,-5.44
2018-02-27T18:57:54.138Z,-5.53
2018-02-27T19:00:21.670Z,-5.61
2018-02-27T19:02:49.387Z,-5.73
2018-02-27T19:05:16.944Z,-5.65
2018-02-27T19:07:44.474Z,-5.60
2018-02-27T19:10:11.990Z,-5.60
2018-02-27T19:12:39.521Z,-5.62
2018-02-27T19:15:07.055Z,-5.74
2018-02-27T19:17:34.587Z,-5.72
2018-02-27T19:20:02.105Z,-5.67
2018-02-27T19:22:29.658Z,-5.52
2018-02-27T19:24:57.226Z,-5.39
2018-02-27T19:27:24.755Z,-5.46
2018-02-27T19:29:52.288Z,-5.21
2018-02-27T19:32:19.872Z,-5.36
2018-02-27T19:34:47.376Z,-5.74
2018-02-27T19:37:14.963Z,-5.46
2018-02-27T19:39:42.517Z,-5.68
2018-02-27T19:42:10.042Z,-5.70
2018-02-27T19:44:37.570Z,-5.59
2018-02-27T19:47:05.096Z,-5.95
2018-02-27T19:49:32.642Z,-5.76
2018-02-27T19:52:00.182Z,-5.81
2018-02-27T19:54:27.757Z,-5.82
2018-02-27T19:56:55.288Z,-5.98
2018-02-27T19:59:22.923Z,-6.03
2018-02-27T20:01:50.716Z,-6.14
2018-02-27T20:04:18.453Z,-6.14
2018-02-27T20:06:46.009Z,-6.06
2018-02-27T20:09:13.527Z,-6.15
2018-02-27T20:11:41.041Z,-6.21
2018-02-27T20:14:08.763Z,-6.00
2018-02-27T20:16:36.510Z,-5.90
2018-02-27T20:19:04.069Z,-5.83
2018-02-27T20:21:31.732Z,-6.11
2018-02-27T20:24:04.839Z,-6.22
2018-02-27T20:26:32.377Z,-6.10
2018-02-27T20:29:05.735Z,-6.20
2018-02-27T20:31:33.343Z,-6.00
2018-02-27T20:34:00.888Z,-6.07
2018-02-27T20:36:28.427Z,-6.26
2018-02-27T20:39:01.548Z,-6.33
2018-02-27T20:41:29.089Z,-6.23
2018-02-27T20:43:56.649Z,-6.30
2018-02-27T20:46:24.175Z,-6.04
2018-02-27T20:48:52.538Z,-5.97
2018-02-27T20:51:20.281Z,-6.10
2018-02-27T20:53:47.801Z,-5.98
2018-02-27T20:56:15.414Z,-6.08
2018-02-27T20:58:42.982Z,-6.37
2018-02-27T21:01:10.526Z,-6.19
2018-02-27T21:03:38.060Z,-6.17
2018-02-27T21:06:05.599Z,-6.75
2018-02-27T21:08:33.131Z,-6.75
2018-02-27T21:11:00.649Z,-6.73
2018-02-27T21:13:29.072Z,-6.92
2018-02-27T21:15:56.636Z,-7.02
2018-02-27T21:18:24.161Z,-7.07
2018-02-27T21:20:51.685Z,-7.03
2018-02-27T21:23:19.241Z,-7.14
2018-02-27T21:25:46.769Z,-7.18
2018-02-27T21:28:14.289Z,-7.53
2018-02-27T21:30:41.833Z,-7.54
2018-02-27T21:33:09.376Z,-7.40
2018-02-27T21:35:36.936Z,-7.79
2018-02-27T21:38:04.460Z,-8.00
2018-02-27T21:40:31.990Z,-8.14
2018-02-27T21:42:59.516Z,-8.06
2018-02-27T21:45:27.056Z,-8.01
2018-02-27T21:47:54.587Z,-8.06
2018-02-27T21:50:22.127Z,-8.05
2018-02-27T21:52:49.654Z,-8.13
2018-02-27T21:55:17.196Z,-8.06
2018-02-27T21:57:44.778Z,-8.24
2018-02-27T22:00:12.329Z,-8.06
2018-02-27T22:02:39.882Z,-8.17
2018-02-27T22:05:07.430Z,-8.07
2018-02-27T22:07:34.972Z,-8.32
2018-02-27T22:10:02.505Z,-8.30
2018-02-27T22:12:30.039Z,-8.26
2018-02-27T22:14:57.581Z,-8.21
2018-02-27T22:17:25.112Z,-8.23
2018-02-27T22:19:52.656Z,-8.26
2018-02-27T22:22:20.170Z,-8.38
2018-02-27T22:24:47.717Z,-8.32
2018-02-27T22:27:15.250Z,-8.25
2018-02-27T22:29:42.774Z,-8.30
2018-02-27T22:32:10.296Z,-8.33
2018-02-27T22:34:37.826Z,-8.24
2018-02-27T22:37:05.378Z,-8.14
2018-02-27T22:39:32.916Z,-8.39
2018-02-27T22:42:00.437Z,-8.39
2018-02-27T22:44:27.965Z,-8.37
2018-02-27T22:46:55.489Z,-8.58
2018-02-27T22:49:23.016Z,-8.58
2018-02-27T22:51:50.543Z,-8.75
2018-02-27T22:54:18.070Z,-8.76
2018-02-27T22:56:45.664Z,-8.60
2018-02-27T22:59:13.192Z,-8.82
2018-02-27T23:01:40.749Z,-8.80
2018-02-27T23:04:08.287Z,-8.82
2018-02-27T23:06:35.992Z,-8.78
2018-02-27T23:09:03.535Z,-8.71
2018-02-27T23:11:31.070Z,-8.68
2018-02-27T23:13:58.613Z,-8.80
2018-02-27T23:16:26.140Z,-8.94
2018-02-27T23:18:53.677Z,-8.77
2018-02-27T23:21:21.201Z,-8.95
2018-02-27T23:23:49.316Z,-8.99
2018-02-27T23:26:22.044Z,-8.94
2018-02-27T23:28:50.701Z,-8.97
2018-02-27T23:31:18.321Z,-9.08
2018-02-27T23:33:46.436Z,-9.09
2018-02-27T23:36:13.963Z,-9.07
2018-02-27T23:38:41.493Z,-9.06
2018-02-27T23:41:09.037Z,-9.20
2018-02-27T23:43:36.573Z,-9.12
2018-02-27T23:46:04.104Z,-8.90
2018-02-27T23:48:31.657Z,-9.28
2018-02-27T23:50:59.183Z,-9.17
2018-02-27T23:53:26.722Z,-9.06
2018-02-27T23:55:54.266Z,-9.30
2018-02-27T23:58:21.796Z,-9.34
